sensor_id;sensor_type;location;lat;lon;timestamp;pressure;altitude;pressure_sealevel;temperature;humidity
21547;BME280;41275;51.912;4.388;2023-02-27T00:02:56;102939.44;;;10.29;40.50
21547;BME280;41275;51.912;4.388;2023-02-27T00:08:18;102955.19;;;10.31;40.59
21547;BME280;41275;51.912;4.388;2023-02-27T00:13:39;102961.25;;;10.40;40.25
21547;BME280;41275;51.912;4.388;2023-02-27T00:19:00;102965.06;;;10.45;40.59
21547;BME280;41275;51.912;4.388;2023-02-27T00:24:24;102962.03;;;10.48;40.42
21547;BME280;41275;51.912;4.388;2023-02-27T00:29:46;102944.03;;;10.44;40.01
21547;BME280;41275;51.912;4.388;2023-02-27T00:35:09;102952.63;;;10.46;40.55
21547;BME280;41275;51.912;4.388;2023-02-27T00:40:30;102945.84;;;10.43;40.26
21547;BME280;41275;51.912;4.388;2023-02-27T00:45:51;102944.38;;;10.41;40.04
21547;BME280;41275;51.912;4.388;2023-02-27T00:51:12;102947.84;;;10.41;40.05
21547;BME280;41275;51.912;4.388;2023-02-27T00:56:34;102944.75;;;10.38;39.96
21547;BME280;41275;51.912;4.388;2023-02-27T01:01:55;102949.22;;;10.29;39.75
21547;BME280;41275;51.912;4.388;2023-02-27T01:07:16;102940.94;;;10.24;39.34
21547;BME280;41275;51.912;4.388;2023-02-27T01:12:38;102946.09;;;10.17;39.90
21547;BME280;41275;51.912;4.388;2023-02-27T01:17:59;102937.38;;;10.08;39.57
21547;BME280;41275;51.912;4.388;2023-02-27T01:23:22;102949.31;;;9.96;39.55
21547;BME280;41275;51.912;4.388;2023-02-27T01:28:43;102942.72;;;9.92;39.63
21547;BME280;41275;51.912;4.388;2023-02-27T01:34:04;102946.38;;;9.91;39.84
21547;BME280;41275;51.912;4.388;2023-02-27T01:39:25;102939.88;;;9.94;39.35
21547;BME280;41275;51.912;4.388;2023-02-27T01:45:15;102931.13;;;9.93;39.56
21547;BME280;41275;51.912;4.388;2023-02-27T01:50:55;102918.47;;;9.80;39.78
21547;BME280;41275;51.912;4.388;2023-02-27T01:56:21;102916.47;;;9.74;39.69
21547;BME280;41275;51.912;4.388;2023-02-27T02:01:43;102918.66;;;9.63;39.71
21547;BME280;41275;51.912;4.388;2023-02-27T02:07:08;102916.03;;;9.46;39.63
21547;BME280;41275;51.912;4.388;2023-02-27T02:12:34;102919.03;;;9.35;39.78
21547;BME280;41275;51.912;4.388;2023-02-27T02:18:13;102922.19;;;9.22;40.15
21547;BME280;41275;51.912;4.388;2023-02-27T02:30:11;102930.09;;;8.98;40.61
21547;BME280;41275;51.912;4.388;2023-02-27T02:41:59;102936.31;;;8.64;41.00
21547;BME280;41275;51.912;4.388;2023-02-27T02:58:42;102939.34;;;8.35;41.72
21547;BME280;41275;51.912;4.388;2023-02-27T03:04:18;102931.56;;;8.25;41.67
21547;BME280;41275;51.912;4.388;2023-02-27T03:10:03;102930.56;;;8.18;41.90
21547;BME280;41275;51.912;4.388;2023-02-27T03:15:35;102928.19;;;8.07;42.32
21547;BME280;41275;51.912;4.388;2023-02-27T03:21:03;102930.63;;;8.00;42.64
21547;BME280;41275;51.912;4.388;2023-02-27T03:26:40;102935.69;;;7.94;42.69
21547;BME280;41275;51.912;4.388;2023-02-27T03:32:28;102934.34;;;7.90;43.28
21547;BME280;41275;51.912;4.388;2023-02-27T03:37:56;102932.50;;;7.82;43.12
21547;BME280;41275;51.912;4.388;2023-02-27T03:49:16;102947.97;;;7.77;43.64
21547;BME280;41275;51.912;4.388;2023-02-27T03:54:46;102945.84;;;7.80;43.86
21547;BME280;41275;51.912;4.388;2023-02-27T04:00:16;102944.66;;;7.75;43.48
21547;BME280;41275;51.912;4.388;2023-02-27T04:05:38;102940.34;;;7.74;43.42
21547;BME280;41275;51.912;4.388;2023-02-27T04:11:30;102934.50;;;7.62;43.61
21547;BME280;41275;51.912;4.388;2023-02-27T04:17:18;102944.56;;;7.58;44.09
21547;BME280;41275;51.912;4.388;2023-02-27T04:22:46;102949.91;;;7.49;43.39
21547;BME280;41275;51.912;4.388;2023-02-27T04:28:35;102955.34;;;7.47;44.40
21547;BME280;41275;51.912;4.388;2023-02-27T04:34:10;102958.59;;;7.41;44.37
21547;BME280;41275;51.912;4.388;2023-02-27T04:39:45;102964.47;;;7.35;44.17
21547;BME280;41275;51.912;4.388;2023-02-27T04:45:13;102972.00;;;7.30;44.70
21547;BME280;41275;51.912;4.388;2023-02-27T04:50:45;102969.66;;;7.27;44.46
21547;BME280;41275;51.912;4.388;2023-02-27T04:56:32;102981.78;;;7.20;44.58
21547;BME280;41275;51.912;4.388;2023-02-27T05:02:03;102986.53;;;7.16;44.72
21547;BME280;41275;51.912;4.388;2023-02-27T05:07:35;102987.81;;;7.12;45.01
21547;BME280;41275;51.912;4.388;2023-02-27T05:18:29;102993.53;;;7.07;45.12
21547;BME280;41275;51.912;4.388;2023-02-27T05:29:55;102989.16;;;6.98;45.12
21547;BME280;41275;51.912;4.388;2023-02-27T05:35:25;103000.50;;;6.99;45.04
21547;BME280;41275;51.912;4.388;2023-02-27T05:40:52;103005.91;;;6.97;45.03
21547;BME280;41275;51.912;4.388;2023-02-27T05:46:27;102987.94;;;6.93;45.76
21547;BME280;41275;51.912;4.388;2023-02-27T05:51:52;102995.31;;;6.89;45.88
21547;BME280;41275;51.912;4.388;2023-02-27T05:57:20;103003.03;;;6.91;45.57
21547;BME280;41275;51.912;4.388;2023-02-27T06:02:43;103005.00;;;6.88;45.64
21547;BME280;41275;51.912;4.388;2023-02-27T06:08:05;103004.31;;;6.86;46.07
21547;BME280;41275;51.912;4.388;2023-02-27T06:13:26;103018.19;;;6.88;46.30
21547;BME280;41275;51.912;4.388;2023-02-27T06:18:47;103011.41;;;6.86;46.01
21547;BME280;41275;51.912;4.388;2023-02-27T06:24:09;103019.56;;;6.83;46.36
21547;BME280;41275;51.912;4.388;2023-02-27T06:29:30;103030.94;;;6.83;46.22
21547;BME280;41275;51.912;4.388;2023-02-27T06:34:51;103043.81;;;6.86;46.81
21547;BME280;41275;51.912;4.388;2023-02-27T06:40:13;103051.41;;;6.89;46.68
21547;BME280;41275;51.912;4.388;2023-02-27T06:45:35;103064.75;;;7.06;46.53
21547;BME280;41275;51.912;4.388;2023-02-27T06:50:56;103066.81;;;7.30;46.61
21547;BME280;41275;51.912;4.388;2023-02-27T06:56:17;103065.09;;;7.56;46.61
21547;BME280;41275;51.912;4.388;2023-02-27T07:01:38;103073.34;;;7.79;46.59
21547;BME280;41275;51.912;4.388;2023-02-27T07:07:00;103069.50;;;7.74;46.29
21547;BME280;41275;51.912;4.388;2023-02-27T07:12:21;103081.34;;;7.70;46.54
21547;BME280;41275;51.912;4.388;2023-02-27T07:17:42;103083.72;;;7.81;46.27
21547;BME280;41275;51.912;4.388;2023-02-27T07:23:03;103084.63;;;7.90;45.64
21547;BME280;41275;51.912;4.388;2023-02-27T07:28:24;103080.69;;;7.94;46.28
21547;BME280;41275;51.912;4.388;2023-02-27T07:33:46;103086.34;;;7.99;46.94
21547;BME280;41275;51.912;4.388;2023-02-27T07:39:07;103088.75;;;8.10;45.97
21547;BME280;41275;51.912;4.388;2023-02-27T07:44:30;103091.53;;;8.34;45.98
21547;BME280;41275;51.912;4.388;2023-02-27T07:49:51;103090.00;;;8.50;45.78
21547;BME280;41275;51.912;4.388;2023-02-27T07:55:13;103088.88;;;8.60;45.72
21547;BME280;41275;51.912;4.388;2023-02-27T08:00:34;103087.47;;;8.74;45.86
21547;BME280;41275;51.912;4.388;2023-02-27T08:05:55;103093.13;;;8.88;45.26
21547;BME280;41275;51.912;4.388;2023-02-27T08:11:17;103086.25;;;9.03;45.15
21547;BME280;41275;51.912;4.388;2023-02-27T08:16:38;103083.31;;;9.14;45.23
21547;BME280;41275;51.912;4.388;2023-02-27T08:22:00;103102.66;;;9.31;44.81
21547;BME280;41275;51.912;4.388;2023-02-27T08:27:21;103103.53;;;9.40;44.93
21547;BME280;41275;51.912;4.388;2023-02-27T08:32:42;103108.84;;;9.56;44.67
21547;BME280;41275;51.912;4.388;2023-02-27T08:38:05;103118.91;;;10.01;44.88
21547;BME280;41275;51.912;4.388;2023-02-27T08:43:26;103115.41;;;10.97;43.65
21547;BME280;41275;51.912;4.388;2023-02-27T08:48:47;103117.91;;;10.91;43.14
21547;BME280;41275;51.912;4.388;2023-02-27T08:54:09;103121.47;;;10.75;42.62
21547;BME280;41275;51.912;4.388;2023-02-27T08:59:30;103127.75;;;10.74;42.33
21547;BME280;41275;51.912;4.388;2023-02-27T09:04:52;103123.94;;;10.68;42.33
21547;BME280;41275;51.912;4.388;2023-02-27T09:10:14;103116.50;;;10.72;41.69
21547;BME280;41275;51.912;4.388;2023-02-27T09:15:35;103131.38;;;10.81;41.86
21547;BME280;41275;51.912;4.388;2023-02-27T09:20:58;103134.47;;;10.93;41.60
21547;BME280;41275;51.912;4.388;2023-02-27T09:26:20;103138.03;;;11.08;41.06
21547;BME280;41275;51.912;4.388;2023-02-27T09:31:41;103139.84;;;11.39;40.94
21547;BME280;41275;51.912;4.388;2023-02-27T09:37:02;103141.78;;;11.53;40.88
21547;BME280;41275;51.912;4.388;2023-02-27T09:42:27;103133.63;;;11.54;40.70
21547;BME280;41275;51.912;4.388;2023-02-27T09:47:58;103136.41;;;11.61;40.24
21547;BME280;41275;51.912;4.388;2023-02-27T09:53:25;103135.72;;;11.90;39.91
21547;BME280;41275;51.912;4.388;2023-02-27T09:58:56;103140.31;;;11.96;39.91
21547;BME280;41275;51.912;4.388;2023-02-27T10:04:23;103150.63;;;12.29;39.53
21547;BME280;41275;51.912;4.388;2023-02-27T10:09:53;103140.38;;;12.41;38.92
21547;BME280;41275;51.912;4.388;2023-02-27T10:15:28;103140.59;;;12.39;38.29
21547;BME280;41275;51.912;4.388;2023-02-27T10:21:05;103146.34;;;12.28;38.05
21547;BME280;41275;51.912;4.388;2023-02-27T10:26:37;103145.47;;;12.13;37.93
21547;BME280;41275;51.912;4.388;2023-02-27T10:32:19;103142.94;;;12.19;37.63
21547;BME280;41275;51.912;4.388;2023-02-27T10:37:47;103142.78;;;12.36;37.22
21547;BME280;41275;51.912;4.388;2023-02-27T10:43:13;103139.16;;;12.14;37.00
21547;BME280;41275;51.912;4.388;2023-02-27T10:48:35;103139.53;;;12.25;36.75
21547;BME280;41275;51.912;4.388;2023-02-27T10:59:38;103142.72;;;12.59;35.49
21547;BME280;41275;51.912;4.388;2023-02-27T11:05:01;103137.56;;;12.72;35.07
21547;BME280;41275;51.912;4.388;2023-02-27T11:10:25;103130.88;;;12.61;34.50
21547;BME280;41275;51.912;4.388;2023-02-27T11:16:07;103116.97;;;12.74;34.03
21547;BME280;41275;51.912;4.388;2023-02-27T11:21:29;103107.88;;;12.83;34.16
21547;BME280;41275;51.912;4.388;2023-02-27T11:26:56;103103.13;;;13.15;33.93
21547;BME280;41275;51.912;4.388;2023-02-27T11:32:17;103098.94;;;13.63;33.15
21547;BME280;41275;51.912;4.388;2023-02-27T11:37:39;103093.16;;;14.09;32.09
21547;BME280;41275;51.912;4.388;2023-02-27T11:43:15;103088.78;;;14.30;31.17
21547;BME280;41275;51.912;4.388;2023-02-27T11:54:43;103070.34;;;14.28;30.51
21547;BME280;41275;51.912;4.388;2023-02-27T12:00:16;103067.50;;;14.64;29.87
21547;BME280;41275;51.912;4.388;2023-02-27T12:11:14;103060.75;;;13.99;29.68
21547;BME280;41275;51.912;4.388;2023-02-27T12:16:40;103060.44;;;13.59;30.26
21547;BME280;41275;51.912;4.388;2023-02-27T12:22:12;103063.88;;;13.53;30.21
21547;BME280;41275;51.912;4.388;2023-02-27T12:27:45;103059.53;;;14.02;30.03
21547;BME280;41275;51.912;4.388;2023-02-27T12:38:37;103039.28;;;17.69;26.74
21547;BME280;41275;51.912;4.388;2023-02-27T12:49:46;103049.16;;;19.27;23.91
21547;BME280;41275;51.912;4.388;2023-02-27T12:55:21;103029.19;;;17.46;25.04
21547;BME280;41275;51.912;4.388;2023-02-27T13:01:05;103035.09;;;17.80;24.86
21547;BME280;41275;51.912;4.388;2023-02-27T13:06:45;103033.44;;;17.29;25.50
21547;BME280;41275;51.912;4.388;2023-02-27T13:12:27;103028.69;;;16.54;25.41
21547;BME280;41275;51.912;4.388;2023-02-27T13:18:25;103036.69;;;15.63;26.13
21547;BME280;41275;51.912;4.388;2023-02-27T13:30:11;103022.84;;;16.84;25.14
21547;BME280;41275;51.912;4.388;2023-02-27T13:36:10;103025.41;;;17.79;24.59
21547;BME280;41275;51.912;4.388;2023-02-27T13:41:35;103028.00;;;19.07;22.81
21547;BME280;41275;51.912;4.388;2023-02-27T13:52:51;103015.31;;;20.61;21.17
21547;BME280;41275;51.912;4.388;2023-02-27T13:58:16;103029.03;;;19.06;21.90
21547;BME280;41275;51.912;4.388;2023-02-27T14:03:39;103023.06;;;17.64;23.48
21547;BME280;41275;51.912;4.388;2023-02-27T14:09:00;103014.06;;;18.87;22.27
21547;BME280;41275;51.912;4.388;2023-02-27T14:14:46;103018.69;;;18.31;23.16
21547;BME280;41275;51.912;4.388;2023-02-27T14:25:39;103017.69;;;16.31;25.18
21547;BME280;41275;51.912;4.388;2023-02-27T14:31:05;103016.78;;;15.79;25.73
21547;BME280;41275;51.912;4.388;2023-02-27T14:36:28;103023.53;;;15.28;27.03
21547;BME280;41275;51.912;4.388;2023-02-27T14:41:53;103019.66;;;15.17;27.26
21547;BME280;41275;51.912;4.388;2023-02-27T14:47:24;103030.50;;;15.03;27.73
21547;BME280;41275;51.912;4.388;2023-02-27T14:52:47;103020.81;;;14.88;27.97
21547;BME280;41275;51.912;4.388;2023-02-27T14:58:15;103014.81;;;14.73;28.51
21547;BME280;41275;51.912;4.388;2023-02-27T15:03:47;103011.03;;;14.47;28.88
21547;BME280;41275;51.912;4.388;2023-02-27T15:09:34;103004.31;;;14.52;29.16
21547;BME280;41275;51.912;4.388;2023-02-27T15:14:59;103011.34;;;14.72;29.31
21547;BME280;41275;51.912;4.388;2023-02-27T15:20:32;103016.25;;;14.69;29.68
21547;BME280;41275;51.912;4.388;2023-02-27T15:25:55;103007.03;;;14.30;30.61
21547;BME280;41275;51.912;4.388;2023-02-27T15:31:20;103011.09;;;14.19;31.11
21547;BME280;41275;51.912;4.388;2023-02-27T15:36:46;103001.97;;;14.42;30.69
21547;BME280;41275;51.912;4.388;2023-02-27T15:42:09;103010.25;;;14.54;30.75
21547;BME280;41275;51.912;4.388;2023-02-27T15:47:31;103007.94;;;14.44;31.00
21547;BME280;41275;51.912;4.388;2023-02-27T15:53:01;103013.78;;;14.19;31.79
21547;BME280;41275;51.912;4.388;2023-02-27T15:58:28;103021.22;;;13.96;32.08
21547;BME280;41275;51.912;4.388;2023-02-27T16:03:53;103015.44;;;13.92;32.37
21547;BME280;41275;51.912;4.388;2023-02-27T16:09:22;103019.25;;;13.83;32.81
21547;BME280;41275;51.912;4.388;2023-02-27T16:14:44;103011.47;;;13.82;33.18
21547;BME280;41275;51.912;4.388;2023-02-27T16:31:32;103024.56;;;13.55;34.08
21547;BME280;41275;51.912;4.388;2023-02-27T16:36:56;103009.13;;;13.22;34.22
21547;BME280;41275;51.912;4.388;2023-02-27T16:42:18;103018.50;;;12.97;34.59
21547;BME280;41275;51.912;4.388;2023-02-27T16:47:40;103017.91;;;12.80;35.38
21547;BME280;41275;51.912;4.388;2023-02-27T16:53:01;103017.50;;;12.62;35.54
21547;BME280;41275;51.912;4.388;2023-02-27T16:58:22;103025.75;;;12.52;35.54
21547;BME280;41275;51.912;4.388;2023-02-27T17:03:44;103017.63;;;12.39;36.44
21547;BME280;41275;51.912;4.388;2023-02-27T17:09:08;103025.22;;;12.27;36.37
21547;BME280;41275;51.912;4.388;2023-02-27T17:14:30;103026.50;;;12.16;37.04
21547;BME280;41275;51.912;4.388;2023-02-27T17:19:51;103020.09;;;12.11;37.29
21547;BME280;41275;51.912;4.388;2023-02-27T17:25:13;103043.63;;;11.99;37.46
21547;BME280;41275;51.912;4.388;2023-02-27T17:30:34;103036.91;;;11.88;37.74
21547;BME280;41275;51.912;4.388;2023-02-27T17:36:04;103048.19;;;11.82;38.25
21547;BME280;41275;51.912;4.388;2023-02-27T17:41:27;103056.06;;;11.75;38.25
21547;BME280;41275;51.912;4.388;2023-02-27T17:46:48;103065.19;;;11.73;38.08
21547;BME280;41275;51.912;4.388;2023-02-27T17:52:10;103064.53;;;11.71;38.76
21547;BME280;41275;51.912;4.388;2023-02-27T17:57:36;103070.09;;;11.61;38.68
21547;BME280;41275;51.912;4.388;2023-02-27T18:02:58;103069.34;;;11.52;38.81
21547;BME280;41275;51.912;4.388;2023-02-27T18:08:19;103073.53;;;11.47;39.08
21547;BME280;41275;51.912;4.388;2023-02-27T18:13:41;103074.94;;;11.35;38.89
21547;BME280;41275;51.912;4.388;2023-02-27T18:19:04;103077.94;;;11.31;39.34
21547;BME280;41275;51.912;4.388;2023-02-27T18:24:25;103088.25;;;11.26;39.42
21547;BME280;41275;51.912;4.388;2023-02-27T18:29:48;103091.44;;;11.22;39.64
21547;BME280;41275;51.912;4.388;2023-02-27T18:35:10;103085.34;;;11.13;39.79
21547;BME280;41275;51.912;4.388;2023-02-27T18:40:31;103080.59;;;11.09;39.78
21547;BME280;41275;51.912;4.388;2023-02-27T18:45:53;103100.28;;;11.06;40.35
21547;BME280;41275;51.912;4.388;2023-02-27T18:51:15;103094.38;;;10.96;40.26
21547;BME280;41275;51.912;4.388;2023-02-27T18:56:37;103089.44;;;10.93;40.19
21547;BME280;41275;51.912;4.388;2023-02-27T19:01:58;103091.13;;;10.86;40.75
21547;BME280;41275;51.912;4.388;2023-02-27T19:07:19;103089.97;;;10.80;41.06
21547;BME280;41275;51.912;4.388;2023-02-27T19:12:43;103082.75;;;10.74;41.10
21547;BME280;41275;51.912;4.388;2023-02-27T19:18:05;103087.88;;;10.67;41.41
21547;BME280;41275;51.912;4.388;2023-02-27T19:23:26;103096.69;;;10.60;41.23
21547;BME280;41275;51.912;4.388;2023-02-27T19:28:52;103108.31;;;10.50;41.73
21547;BME280;41275;51.912;4.388;2023-02-27T19:34:13;103109.63;;;10.46;41.69
21547;BME280;41275;51.912;4.388;2023-02-27T19:39:35;103111.47;;;10.46;41.60
21547;BME280;41275;51.912;4.388;2023-02-27T19:44:56;103108.81;;;10.46;41.92
21547;BME280;41275;51.912;4.388;2023-02-27T19:50:17;103110.00;;;10.35;42.25
21547;BME280;41275;51.912;4.388;2023-02-27T19:55:38;103108.00;;;10.29;42.05
21547;BME280;41275;51.912;4.388;2023-02-27T20:00:59;103116.31;;;10.26;42.34
21547;BME280;41275;51.912;4.388;2023-02-27T20:06:22;103112.47;;;10.20;42.74
21547;BME280;41275;51.912;4.388;2023-02-27T20:11:45;103124.38;;;10.16;42.60
21547;BME280;41275;51.912;4.388;2023-02-27T20:17:07;103113.28;;;10.13;42.52
21547;BME280;41275;51.912;4.388;2023-02-27T20:22:28;103118.75;;;10.11;42.75
21547;BME280;41275;51.912;4.388;2023-02-27T20:27:49;103119.28;;;10.06;43.34
21547;BME280;41275;51.912;4.388;2023-02-27T20:33:10;103117.59;;;10.05;42.93
21547;BME280;41275;51.912;4.388;2023-02-27T20:38:32;103122.56;;;10.00;43.47
21547;BME280;41275;51.912;4.388;2023-02-27T20:43:54;103109.16;;;9.94;42.98
21547;BME280;41275;51.912;4.388;2023-02-27T20:49:15;103122.25;;;9.95;43.36
21547;BME280;41275;51.912;4.388;2023-02-27T20:54:36;103110.66;;;9.88;43.35
21547;BME280;41275;51.912;4.388;2023-02-27T20:59:58;103110.34;;;9.91;43.35
21547;BME280;41275;51.912;4.388;2023-02-27T21:05:19;103109.53;;;9.91;43.61
21547;BME280;41275;51.912;4.388;2023-02-27T21:10:40;103130.19;;;9.95;43.90
21547;BME280;41275;51.912;4.388;2023-02-27T21:16:06;103126.72;;;9.87;43.74
21547;BME280;41275;51.912;4.388;2023-02-27T21:21:30;103131.97;;;9.78;44.04
21547;BME280;41275;51.912;4.388;2023-02-27T21:26:52;103120.44;;;9.71;44.11
21547;BME280;41275;51.912;4.388;2023-02-27T21:32:13;103132.16;;;9.69;44.25
21547;BME280;41275;51.912;4.388;2023-02-27T21:37:34;103131.47;;;9.67;44.55
21547;BME280;41275;51.912;4.388;2023-02-27T21:42:56;103126.53;;;9.55;44.85
21547;BME280;41275;51.912;4.388;2023-02-27T21:48:17;103133.78;;;9.53;44.95
21547;BME280;41275;51.912;4.388;2023-02-27T21:53:38;103123.88;;;9.47;45.30
21547;BME280;41275;51.912;4.388;2023-02-27T21:59:01;103128.66;;;9.44;45.29
21547;BME280;41275;51.912;4.388;2023-02-27T22:04:23;103130.09;;;9.38;45.34
21547;BME280;41275;51.912;4.388;2023-02-27T22:09:44;103139.53;;;9.41;45.43
21547;BME280;41275;51.912;4.388;2023-02-27T22:15:06;103135.88;;;9.33;45.39
21547;BME280;41275;51.912;4.388;2023-02-27T22:20:27;103137.00;;;9.23;45.60
21547;BME280;41275;51.912;4.388;2023-02-27T22:26:00;103135.66;;;9.19;46.01
21547;BME280;41275;51.912;4.388;2023-02-27T22:31:24;103148.88;;;9.19;45.98
21547;BME280;41275;51.912;4.388;2023-02-27T22:36:47;103150.66;;;9.10;45.76
21547;BME280;41275;51.912;4.388;2023-02-27T22:42:11;103151.31;;;9.04;46.25
21547;BME280;41275;51.912;4.388;2023-02-27T22:47:34;103149.94;;;9.00;46.20
21547;BME280;41275;51.912;4.388;2023-02-27T22:52:55;103152.13;;;8.96;46.28
21547;BME280;41275;51.912;4.388;2023-02-27T22:58:16;103140.84;;;8.86;46.55
21547;BME280;41275;51.912;4.388;2023-02-27T23:03:38;103162.16;;;8.93;47.23
21547;BME280;41275;51.912;4.388;2023-02-27T23:09:00;103157.81;;;8.83;46.86
21547;BME280;41275;51.912;4.388;2023-02-27T23:14:22;103159.78;;;8.81;47.26
21547;BME280;41275;51.912;4.388;2023-02-27T23:19:43;103159.63;;;8.83;46.97
21547;BME280;41275;51.912;4.388;2023-02-27T23:25:05;103155.13;;;8.75;47.71
21547;BME280;41275;51.912;4.388;2023-02-27T23:30:29;103163.22;;;8.74;47.47
21547;BME280;41275;51.912;4.388;2023-02-27T23:35:51;103148.31;;;8.65;47.46
21547;BME280;41275;51.912;4.388;2023-02-27T23:41:13;103159.88;;;8.72;47.39
21547;BME280;41275;51.912;4.388;2023-02-27T23:46:37;103165.34;;;8.70;47.43
21547;BME280;41275;51.912;4.388;2023-02-27T23:51:59;103180.88;;;8.73;46.78
21547;BME280;41275;51.912;4.388;2023-02-27T23:57:20;103172.78;;;8.75;47.43
